Terminal Aerodrome Forecast
Issued by NWS

Home | Current Version | Previous Version | Graphics & Text | Print | Product List | Glossary On
Versions: 1 2 3 4 5 6 7 8 9 10 11 12 13 14 15 16 17 18 19
760
FTUS43 KTOP 201721
TAFMHK
TAF
KMHK 201721Z 2018/2118 36005KT 6SM BR VCSH OVC010
     FM202200 01006KT P6SM OVC025
     FM210900 VRB04KT P6SM BKN010
     FM211500 VRB03KT P6SM SCT015=

USA.gov is the U.S. government's official web portal to all federal, state and local government web resources and services.